sensor_id;sensor_type;location;lat;lon;timestamp;P1;durP1;ratioP1;P2;durP2;ratioP2
9178;SDS011;4624;48.126;11.546;2023-02-11T00:01:28;18.20;;;11.07;;
9178;SDS011;4624;48.126;11.546;2023-02-11T00:03:55;19.67;;;11.57;;
9178;SDS011;4624;48.126;11.546;2023-02-11T00:06:23;16.43;;;10.40;;
9178;SDS011;4624;48.126;11.546;2023-02-11T00:08:51;19.00;;;11.23;;
9178;SDS011;4624;48.126;11.546;2023-02-11T00:11:19;16.70;;;10.73;;
9178;SDS011;4624;48.126;11.546;2023-02-11T00:13:47;18.00;;;11.53;;
9178;SDS011;4624;48.126;11.546;2023-02-11T00:16:16;17.23;;;10.77;;
9178;SDS011;4624;48.126;11.546;2023-02-11T00:18:45;16.37;;;11.13;;
9178;SDS011;4624;48.126;11.546;2023-02-11T00:21:13;16.87;;;10.03;;
9178;SDS011;4624;48.126;11.546;2023-02-11T00:23:40;17.00;;;11.77;;
9178;SDS011;4624;48.126;11.546;2023-02-11T00:26:10;15.40;;;11.00;;
9178;SDS011;4624;48.126;11.546;2023-02-11T00:28:37;15.80;;;11.03;;
9178;SDS011;4624;48.126;11.546;2023-02-11T00:31:04;16.17;;;10.57;;
9178;SDS011;4624;48.126;11.546;2023-02-11T00:33:32;18.60;;;10.63;;
9178;SDS011;4624;48.126;11.546;2023-02-11T00:36:02;19.00;;;11.30;;
9178;SDS011;4624;48.126;11.546;2023-02-11T00:38:29;15.40;;;10.57;;
9178;SDS011;4624;48.126;11.546;2023-02-11T00:40:56;14.90;;;10.33;;
9178;SDS011;4624;48.126;11.546;2023-02-11T00:43:23;13.67;;;9.47;;
9178;SDS011;4624;48.126;11.546;2023-02-11T00:45:50;22.40;;;10.80;;
9178;SDS011;4624;48.126;11.546;2023-02-11T00:48:17;15.30;;;10.10;;
9178;SDS011;4624;48.126;11.546;2023-02-11T00:50:45;15.67;;;10.80;;
9178;SDS011;4624;48.126;11.546;2023-02-11T00:53:12;17.37;;;11.07;;
9178;SDS011;4624;48.126;11.546;2023-02-11T00:55:38;14.23;;;10.53;;
9178;SDS011;4624;48.126;11.546;2023-02-11T00:58:05;17.60;;;10.63;;
9178;SDS011;4624;48.126;11.546;2023-02-11T01:00:32;16.83;;;10.60;;
9178;SDS011;4624;48.126;11.546;2023-02-11T01:02:58;17.53;;;10.27;;
9178;SDS011;4624;48.126;11.546;2023-02-11T01:05:25;17.50;;;11.23;;
9178;SDS011;4624;48.126;11.546;2023-02-11T01:07:54;16.13;;;9.67;;
9178;SDS011;4624;48.126;11.546;2023-02-11T01:10:21;16.87;;;9.90;;
9178;SDS011;4624;48.126;11.546;2023-02-11T01:12:47;15.73;;;10.17;;
9178;SDS011;4624;48.126;11.546;2023-02-11T01:15:14;17.13;;;10.97;;
9178;SDS011;4624;48.126;11.546;2023-02-11T01:17:43;18.20;;;11.13;;
9178;SDS011;4624;48.126;11.546;2023-02-11T01:20:12;17.33;;;10.60;;
9178;SDS011;4624;48.126;11.546;2023-02-11T01:22:41;20.10;;;11.00;;
9178;SDS011;4624;48.126;11.546;2023-02-11T01:25:09;19.83;;;10.63;;
9178;SDS011;4624;48.126;11.546;2023-02-11T01:27:36;15.63;;;10.13;;
9178;SDS011;4624;48.126;11.546;2023-02-11T01:30:04;15.77;;;10.30;;
9178;SDS011;4624;48.126;11.546;2023-02-11T01:32:33;16.97;;;11.10;;
9178;SDS011;4624;48.126;11.546;2023-02-11T01:35:00;15.87;;;10.50;;
9178;SDS011;4624;48.126;11.546;2023-02-11T01:37:26;14.60;;;10.30;;
9178;SDS011;4624;48.126;11.546;2023-02-11T01:39:53;15.33;;;9.93;;
9178;SDS011;4624;48.126;11.546;2023-02-11T01:42:21;17.80;;;10.07;;
9178;SDS011;4624;48.126;11.546;2023-02-11T01:44:49;12.97;;;8.80;;
9178;SDS011;4624;48.126;11.546;2023-02-11T01:47:17;13.77;;;8.90;;
9178;SDS011;4624;48.126;11.546;2023-02-11T01:49:46;11.27;;;8.33;;
9178;SDS011;4624;48.126;11.546;2023-02-11T01:52:18;12.87;;;9.10;;
9178;SDS011;4624;48.126;11.546;2023-02-11T01:54:49;13.40;;;8.47;;
9178;SDS011;4624;48.126;11.546;2023-02-11T01:57:37;11.70;;;8.30;;
9178;SDS011;4624;48.126;11.546;2023-02-11T02:00:08;11.67;;;8.17;;
9178;SDS011;4624;48.126;11.546;2023-02-11T02:02:38;14.37;;;8.80;;
9178;SDS011;4624;48.126;11.546;2023-02-11T02:05:14;16.00;;;8.23;;
9178;SDS011;4624;48.126;11.546;2023-02-11T02:07:49;12.03;;;8.57;;
9178;SDS011;4624;48.126;11.546;2023-02-11T02:10:30;12.67;;;7.63;;
9178;SDS011;4624;48.126;11.546;2023-02-11T02:13:00;12.10;;;8.43;;
9178;SDS011;4624;48.126;11.546;2023-02-11T02:15:28;12.10;;;8.03;;
9178;SDS011;4624;48.126;11.546;2023-02-11T02:18:01;11.57;;;8.20;;
9178;SDS011;4624;48.126;11.546;2023-02-11T02:20:47;13.20;;;7.80;;
9178;SDS011;4624;48.126;11.546;2023-02-11T02:23:30;12.20;;;7.77;;
9178;SDS011;4624;48.126;11.546;2023-02-11T02:26:18;10.23;;;7.20;;
9178;SDS011;4624;48.126;11.546;2023-02-11T02:29:28;11.93;;;7.93;;
9178;SDS011;4624;48.126;11.546;2023-02-11T02:32:19;10.40;;;7.30;;
9178;SDS011;4624;48.126;11.546;2023-02-11T02:34:56;10.50;;;7.80;;
9178;SDS011;4624;48.126;11.546;2023-02-11T02:37:29;12.53;;;7.13;;
9178;SDS011;4624;48.126;11.546;2023-02-11T02:40:00;12.43;;;7.63;;
9178;SDS011;4624;48.126;11.546;2023-02-11T02:42:32;10.77;;;7.57;;
9178;SDS011;4624;48.126;11.546;2023-02-11T02:44:59;12.40;;;7.83;;
9178;SDS011;4624;48.126;11.546;2023-02-11T02:47:27;11.73;;;7.60;;
9178;SDS011;4624;48.126;11.546;2023-02-11T02:49:54;12.10;;;8.00;;
9178;SDS011;4624;48.126;11.546;2023-02-11T02:52:24;10.60;;;7.30;;
9178;SDS011;4624;48.126;11.546;2023-02-11T02:55:02;11.23;;;7.60;;
9178;SDS011;4624;48.126;11.546;2023-02-11T02:57:52;8.73;;;6.70;;
9178;SDS011;4624;48.126;11.546;2023-02-11T03:00:40;9.77;;;6.77;;
9178;SDS011;4624;48.126;11.546;2023-02-11T03:03:17;9.70;;;6.90;;
9178;SDS011;4624;48.126;11.546;2023-02-11T03:05:54;11.13;;;6.80;;
9178;SDS011;4624;48.126;11.546;2023-02-11T03:08:28;10.27;;;6.53;;
9178;SDS011;4624;48.126;11.546;2023-02-11T03:10:59;8.23;;;6.23;;
9178;SDS011;4624;48.126;11.546;2023-02-11T03:13:29;8.63;;;6.20;;
9178;SDS011;4624;48.126;11.546;2023-02-11T03:15:59;10.67;;;6.47;;
9178;SDS011;4624;48.126;11.546;2023-02-11T03:18:33;8.17;;;6.30;;
9178;SDS011;4624;48.126;11.546;2023-02-11T03:21:02;7.93;;;5.50;;
9178;SDS011;4624;48.126;11.546;2023-02-11T03:23:34;8.83;;;6.17;;
9178;SDS011;4624;48.126;11.546;2023-02-11T03:26:06;12.33;;;7.10;;
9178;SDS011;4624;48.126;11.546;2023-02-11T03:28:42;9.20;;;6.60;;
9178;SDS011;4624;48.126;11.546;2023-02-11T03:31:16;9.27;;;6.73;;
9178;SDS011;4624;48.126;11.546;2023-02-11T03:33:49;9.30;;;6.10;;
9178;SDS011;4624;48.126;11.546;2023-02-11T03:36:23;9.90;;;7.07;;
9178;SDS011;4624;48.126;11.546;2023-02-11T03:38:57;11.07;;;6.80;;
9178;SDS011;4624;48.126;11.546;2023-02-11T03:41:27;10.30;;;6.97;;
9178;SDS011;4624;48.126;11.546;2023-02-11T03:43:55;12.07;;;6.73;;
9178;SDS011;4624;48.126;11.546;2023-02-11T03:46:26;10.00;;;6.17;;
9178;SDS011;4624;48.126;11.546;2023-02-11T03:48:59;10.83;;;6.33;;
9178;SDS011;4624;48.126;11.546;2023-02-11T03:51:30;9.50;;;6.07;;
9178;SDS011;4624;48.126;11.546;2023-02-11T03:53:59;6.70;;;5.33;;
9178;SDS011;4624;48.126;11.546;2023-02-11T03:56:31;8.77;;;5.80;;
9178;SDS011;4624;48.126;11.546;2023-02-11T03:59:02;10.83;;;6.10;;
9178;SDS011;4624;48.126;11.546;2023-02-11T04:01:29;8.90;;;5.83;;
9178;SDS011;4624;48.126;11.546;2023-02-11T04:03:56;10.87;;;5.83;;
9178;SDS011;4624;48.126;11.546;2023-02-11T04:06:24;9.83;;;6.07;;
9178;SDS011;4624;48.126;11.546;2023-02-11T04:08:51;7.17;;;5.37;;
9178;SDS011;4624;48.126;11.546;2023-02-11T04:11:17;8.13;;;5.23;;
9178;SDS011;4624;48.126;11.546;2023-02-11T04:13:44;6.97;;;5.13;;
9178;SDS011;4624;48.126;11.546;2023-02-11T04:16:11;10.10;;;5.63;;
9178;SDS011;4624;48.126;11.546;2023-02-11T04:18:38;9.47;;;5.70;;
9178;SDS011;4624;48.126;11.546;2023-02-11T04:21:04;10.73;;;5.40;;
9178;SDS011;4624;48.126;11.546;2023-02-11T04:23:32;8.00;;;4.97;;
9178;SDS011;4624;48.126;11.546;2023-02-11T04:25:59;11.47;;;5.50;;
9178;SDS011;4624;48.126;11.546;2023-02-11T04:28:26;5.93;;;4.73;;
9178;SDS011;4624;48.126;11.546;2023-02-11T04:30:53;8.30;;;5.40;;
9178;SDS011;4624;48.126;11.546;2023-02-11T04:33:20;7.87;;;5.70;;
9178;SDS011;4624;48.126;11.546;2023-02-11T04:35:47;6.97;;;5.37;;
9178;SDS011;4624;48.126;11.546;2023-02-11T04:38:15;8.73;;;5.63;;
9178;SDS011;4624;48.126;11.546;2023-02-11T04:40:43;11.20;;;6.10;;
9178;SDS011;4624;48.126;11.546;2023-02-11T04:43:10;8.03;;;5.30;;
9178;SDS011;4624;48.126;11.546;2023-02-11T04:45:37;7.90;;;5.13;;
9178;SDS011;4624;48.126;11.546;2023-02-11T04:48:03;7.77;;;5.53;;
9178;SDS011;4624;48.126;11.546;2023-02-11T04:50:30;8.43;;;5.40;;
9178;SDS011;4624;48.126;11.546;2023-02-11T04:52:57;8.63;;;5.73;;
9178;SDS011;4624;48.126;11.546;2023-02-11T04:55:24;8.80;;;5.77;;
9178;SDS011;4624;48.126;11.546;2023-02-11T04:57:52;8.63;;;5.50;;
9178;SDS011;4624;48.126;11.546;2023-02-11T05:00:19;8.33;;;5.37;;
9178;SDS011;4624;48.126;11.546;2023-02-11T05:02:46;8.20;;;5.03;;
9178;SDS011;4624;48.126;11.546;2023-02-11T05:05:13;9.63;;;5.17;;
9178;SDS011;4624;48.126;11.546;2023-02-11T05:07:39;8.30;;;5.40;;
9178;SDS011;4624;48.126;11.546;2023-02-11T05:10:06;8.27;;;4.90;;
9178;SDS011;4624;48.126;11.546;2023-02-11T05:12:33;8.07;;;4.67;;
9178;SDS011;4624;48.126;11.546;2023-02-11T05:15:01;6.77;;;5.23;;
9178;SDS011;4624;48.126;11.546;2023-02-11T05:17:28;7.20;;;4.93;;
9178;SDS011;4624;48.126;11.546;2023-02-11T05:19:55;7.73;;;5.13;;
9178;SDS011;4624;48.126;11.546;2023-02-11T05:22:22;9.00;;;5.07;;
9178;SDS011;4624;48.126;11.546;2023-02-11T05:24:48;7.77;;;5.40;;
9178;SDS011;4624;48.126;11.546;2023-02-11T05:27:15;8.63;;;4.73;;
9178;SDS011;4624;48.126;11.546;2023-02-11T05:29:42;7.27;;;4.60;;
9178;SDS011;4624;48.126;11.546;2023-02-11T05:32:10;6.50;;;4.53;;
9178;SDS011;4624;48.126;11.546;2023-02-11T05:34:37;7.23;;;5.30;;
9178;SDS011;4624;48.126;11.546;2023-02-11T05:37:03;7.27;;;5.13;;
9178;SDS011;4624;48.126;11.546;2023-02-11T05:39:31;6.10;;;5.10;;
9178;SDS011;4624;48.126;11.546;2023-02-11T05:41:57;8.47;;;4.97;;
9178;SDS011;4624;48.126;11.546;2023-02-11T05:44:24;8.60;;;4.77;;
9178;SDS011;4624;48.126;11.546;2023-02-11T05:46:51;9.60;;;5.30;;
9178;SDS011;4624;48.126;11.546;2023-02-11T05:49:19;11.30;;;5.70;;
9178;SDS011;4624;48.126;11.546;2023-02-11T05:51:46;7.37;;;4.60;;
9178;SDS011;4624;48.126;11.546;2023-02-11T05:54:13;5.70;;;4.60;;
9178;SDS011;4624;48.126;11.546;2023-02-11T05:56:40;8.67;;;4.40;;
9178;SDS011;4624;48.126;11.546;2023-02-11T05:59:06;5.97;;;4.10;;
9178;SDS011;4624;48.126;11.546;2023-02-11T06:01:33;5.13;;;3.93;;
9178;SDS011;4624;48.126;11.546;2023-02-11T06:04:01;8.23;;;4.37;;
9178;SDS011;4624;48.126;11.546;2023-02-11T06:06:30;6.17;;;4.50;;
9178;SDS011;4624;48.126;11.546;2023-02-11T06:08:57;8.37;;;4.50;;
9178;SDS011;4624;48.126;11.546;2023-02-11T06:11:23;6.53;;;4.67;;
9178;SDS011;4624;48.126;11.546;2023-02-11T06:13:50;4.07;;;3.63;;
9178;SDS011;4624;48.126;11.546;2023-02-11T06:16:17;5.07;;;3.90;;
9178;SDS011;4624;48.126;11.546;2023-02-11T06:18:44;6.07;;;4.40;;
9178;SDS011;4624;48.126;11.546;2023-02-11T06:21:11;5.40;;;3.30;;
9178;SDS011;4624;48.126;11.546;2023-02-11T06:23:39;5.03;;;3.77;;
9178;SDS011;4624;48.126;11.546;2023-02-11T06:26:06;7.97;;;4.50;;
9178;SDS011;4624;48.126;11.546;2023-02-11T06:28:34;6.67;;;4.30;;
9178;SDS011;4624;48.126;11.546;2023-02-11T06:31:03;6.00;;;4.20;;
9178;SDS011;4624;48.126;11.546;2023-02-11T06:33:31;7.20;;;4.07;;
9178;SDS011;4624;48.126;11.546;2023-02-11T06:35:58;6.20;;;4.10;;
9178;SDS011;4624;48.126;11.546;2023-02-11T06:38:25;7.00;;;4.73;;
9178;SDS011;4624;48.126;11.546;2023-02-11T06:40:53;7.30;;;4.77;;
9178;SDS011;4624;48.126;11.546;2023-02-11T06:43:20;6.77;;;4.63;;
9178;SDS011;4624;48.126;11.546;2023-02-11T06:45:51;6.07;;;4.23;;
9178;SDS011;4624;48.126;11.546;2023-02-11T06:48:18;8.80;;;4.57;;
9178;SDS011;4624;48.126;11.546;2023-02-11T06:50:44;5.60;;;3.97;;
9178;SDS011;4624;48.126;11.546;2023-02-11T06:53:11;5.77;;;3.80;;
9178;SDS011;4624;48.126;11.546;2023-02-11T06:55:38;5.50;;;3.70;;
9178;SDS011;4624;48.126;11.546;2023-02-11T06:58:06;5.80;;;3.30;;
9178;SDS011;4624;48.126;11.546;2023-02-11T07:00:33;3.53;;;3.10;;
9178;SDS011;4624;48.126;11.546;2023-02-11T07:02:59;4.50;;;2.97;;
9178;SDS011;4624;48.126;11.546;2023-02-11T07:05:26;3.53;;;2.90;;
9178;SDS011;4624;48.126;11.546;2023-02-11T07:07:53;3.37;;;2.70;;
9178;SDS011;4624;48.126;11.546;2023-02-11T07:10:20;7.83;;;3.30;;
9178;SDS011;4624;48.126;11.546;2023-02-11T07:12:46;6.50;;;3.20;;
9178;SDS011;4624;48.126;11.546;2023-02-11T07:15:14;4.00;;;3.27;;
9178;SDS011;4624;48.126;11.546;2023-02-11T07:17:41;6.33;;;3.30;;
9178;SDS011;4624;48.126;11.546;2023-02-11T07:20:08;5.53;;;3.03;;
9178;SDS011;4624;48.126;11.546;2023-02-11T07:22:38;8.20;;;5.00;;
9178;SDS011;4624;48.126;11.546;2023-02-11T07:25:05;7.90;;;3.20;;
9178;SDS011;4624;48.126;11.546;2023-02-11T07:27:32;5.20;;;3.47;;
9178;SDS011;4624;48.126;11.546;2023-02-11T07:29:59;4.10;;;2.93;;
9178;SDS011;4624;48.126;11.546;2023-02-11T07:32:27;4.73;;;3.20;;
9178;SDS011;4624;48.126;11.546;2023-02-11T07:34:54;3.67;;;3.00;;
9178;SDS011;4624;48.126;11.546;2023-02-11T07:37:20;6.63;;;3.50;;
9178;SDS011;4624;48.126;11.546;2023-02-11T07:39:47;7.23;;;3.57;;
9178;SDS011;4624;48.126;11.546;2023-02-11T07:42:14;7.33;;;3.40;;
9178;SDS011;4624;48.126;11.546;2023-02-11T07:44:40;9.33;;;3.73;;
9178;SDS011;4624;48.126;11.546;2023-02-11T07:47:07;5.20;;;3.17;;
9178;SDS011;4624;48.126;11.546;2023-02-11T07:49:35;4.83;;;3.30;;
9178;SDS011;4624;48.126;11.546;2023-02-11T07:52:02;6.03;;;3.20;;
9178;SDS011;4624;48.126;11.546;2023-02-11T07:54:29;4.37;;;3.63;;
9178;SDS011;4624;48.126;11.546;2023-02-11T07:56:55;6.70;;;3.87;;
9178;SDS011;4624;48.126;11.546;2023-02-11T07:59:22;9.17;;;4.20;;
9178;SDS011;4624;48.126;11.546;2023-02-11T08:01:49;5.87;;;3.80;;
9178;SDS011;4624;48.126;11.546;2023-02-11T08:04:16;5.33;;;3.73;;
9178;SDS011;4624;48.126;11.546;2023-02-11T08:06:44;8.13;;;3.80;;
9178;SDS011;4624;48.126;11.546;2023-02-11T08:09:13;5.47;;;4.40;;
9178;SDS011;4624;48.126;11.546;2023-02-11T08:11:41;5.90;;;3.60;;
9178;SDS011;4624;48.126;11.546;2023-02-11T08:14:08;7.90;;;4.37;;
9178;SDS011;4624;48.126;11.546;2023-02-11T08:16:35;7.83;;;4.13;;
9178;SDS011;4624;48.126;11.546;2023-02-11T08:19:04;6.97;;;3.83;;
9178;SDS011;4624;48.126;11.546;2023-02-11T08:21:32;8.27;;;4.47;;
9178;SDS011;4624;48.126;11.546;2023-02-11T08:24:01;8.37;;;4.17;;
9178;SDS011;4624;48.126;11.546;2023-02-11T08:26:28;5.93;;;4.20;;
9178;SDS011;4624;48.126;11.546;2023-02-11T08:28:58;7.13;;;4.20;;
9178;SDS011;4624;48.126;11.546;2023-02-11T08:31:27;7.37;;;4.70;;
9178;SDS011;4624;48.126;11.546;2023-02-11T08:33:55;7.23;;;4.80;;
9178;SDS011;4624;48.126;11.546;2023-02-11T08:36:23;9.60;;;5.10;;
9178;SDS011;4624;48.126;11.546;2023-02-11T08:38:52;7.73;;;4.50;;
9178;SDS011;4624;48.126;11.546;2023-02-11T08:41:21;6.63;;;5.00;;
9178;SDS011;4624;48.126;11.546;2023-02-11T08:43:48;12.27;;;4.83;;
9178;SDS011;4624;48.126;11.546;2023-02-11T08:46:16;9.73;;;4.83;;
9178;SDS011;4624;48.126;11.546;2023-02-11T08:48:44;12.03;;;5.23;;
9178;SDS011;4624;48.126;11.546;2023-02-11T08:51:13;12.03;;;5.47;;
9178;SDS011;4624;48.126;11.546;2023-02-11T08:53:41;9.67;;;4.80;;
9178;SDS011;4624;48.126;11.546;2023-02-11T08:56:08;7.90;;;4.10;;
9178;SDS011;4624;48.126;11.546;2023-02-11T08:58:37;8.53;;;5.23;;
9178;SDS011;4624;48.126;11.546;2023-02-11T09:01:07;7.67;;;4.77;;
9178;SDS011;4624;48.126;11.546;2023-02-11T09:03:35;8.97;;;5.40;;
9178;SDS011;4624;48.126;11.546;2023-02-11T09:06:03;10.80;;;5.37;;
9178;SDS011;4624;48.126;11.546;2023-02-11T09:08:32;9.20;;;5.20;;
9178;SDS011;4624;48.126;11.546;2023-02-11T09:10:59;9.70;;;5.43;;
9178;SDS011;4624;48.126;11.546;2023-02-11T09:13:26;12.90;;;5.43;;
9178;SDS011;4624;48.126;11.546;2023-02-11T09:15:54;8.00;;;5.20;;
9178;SDS011;4624;48.126;11.546;2023-02-11T09:18:21;8.33;;;5.33;;
9178;SDS011;4624;48.126;11.546;2023-02-11T09:20:48;9.90;;;4.90;;
9178;SDS011;4624;48.126;11.546;2023-02-11T09:23:15;9.77;;;5.07;;
9178;SDS011;4624;48.126;11.546;2023-02-11T09:25:42;7.00;;;4.97;;
9178;SDS011;4624;48.126;11.546;2023-02-11T09:28:08;12.67;;;5.60;;
9178;SDS011;4624;48.126;11.546;2023-02-11T09:30:36;10.83;;;5.00;;
9178;SDS011;4624;48.126;11.546;2023-02-11T09:33:04;7.73;;;4.87;;
9178;SDS011;4624;48.126;11.546;2023-02-11T09:35:31;9.17;;;5.47;;
9178;SDS011;4624;48.126;11.546;2023-02-11T09:37:59;12.73;;;5.20;;
9178;SDS011;4624;48.126;11.546;2023-02-11T09:40:26;9.23;;;5.53;;
9178;SDS011;4624;48.126;11.546;2023-02-11T09:42:54;13.40;;;8.20;;
9178;SDS011;4624;48.126;11.546;2023-02-11T09:45:26;11.70;;;5.50;;
9178;SDS011;4624;48.126;11.546;2023-02-11T09:47:55;7.87;;;5.30;;
9178;SDS011;4624;48.126;11.546;2023-02-11T09:50:28;8.53;;;4.60;;
9178;SDS011;4624;48.126;11.546;2023-02-11T09:52:59;10.83;;;4.80;;
9178;SDS011;4624;48.126;11.546;2023-02-11T09:55:28;8.63;;;5.03;;
9178;SDS011;4624;48.126;11.546;2023-02-11T09:57:58;7.90;;;4.97;;
9178;SDS011;4624;48.126;11.546;2023-02-11T10:00:30;10.27;;;4.90;;
9178;SDS011;4624;48.126;11.546;2023-02-11T10:03:13;11.30;;;5.83;;
9178;SDS011;4624;48.126;11.546;2023-02-11T10:06:08;9.30;;;5.77;;
9178;SDS011;4624;48.126;11.546;2023-02-11T10:08:50;9.40;;;6.20;;
9178;SDS011;4624;48.126;11.546;2023-02-11T10:11:25;12.03;;;6.30;;
9178;SDS011;4624;48.126;11.546;2023-02-11T10:14:05;9.93;;;6.50;;
9178;SDS011;4624;48.126;11.546;2023-02-11T10:16:44;8.90;;;6.63;;
9178;SDS011;4624;48.126;11.546;2023-02-11T10:19:28;9.97;;;6.60;;
9178;SDS011;4624;48.126;11.546;2023-02-11T10:22:08;10.27;;;7.00;;
9178;SDS011;4624;48.126;11.546;2023-02-11T10:24:39;8.77;;;6.77;;
9178;SDS011;4624;48.126;11.546;2023-02-11T10:27:14;12.17;;;7.80;;
9178;SDS011;4624;48.126;11.546;2023-02-11T10:29:45;8.90;;;6.53;;
9178;SDS011;4624;48.126;11.546;2023-02-11T10:32:21;10.70;;;7.07;;
9178;SDS011;4624;48.126;11.546;2023-02-11T10:34:54;11.33;;;7.07;;
9178;SDS011;4624;48.126;11.546;2023-02-11T10:37:28;10.13;;;6.93;;
9178;SDS011;4624;48.126;11.546;2023-02-11T10:39:55;10.10;;;7.17;;
9178;SDS011;4624;48.126;11.546;2023-02-11T10:42:21;11.40;;;6.80;;
9178;SDS011;4624;48.126;11.546;2023-02-11T10:44:53;12.90;;;7.27;;
9178;SDS011;4624;48.126;11.546;2023-02-11T10:47:23;10.67;;;7.10;;
9178;SDS011;4624;48.126;11.546;2023-02-11T10:49:53;12.13;;;7.20;;
9178;SDS011;4624;48.126;11.546;2023-02-11T10:52:29;9.17;;;6.70;;
9178;SDS011;4624;48.126;11.546;2023-02-11T10:54:56;8.83;;;6.80;;
9178;SDS011;4624;48.126;11.546;2023-02-11T10:57:26;9.03;;;6.50;;
9178;SDS011;4624;48.126;11.546;2023-02-11T10:59:57;13.63;;;6.47;;
9178;SDS011;4624;48.126;11.546;2023-02-11T11:02:27;11.37;;;6.27;;
9178;SDS011;4624;48.126;11.546;2023-02-11T11:04:58;9.60;;;7.07;;
9178;SDS011;4624;48.126;11.546;2023-02-11T11:07:29;11.27;;;7.37;;
9178;SDS011;4624;48.126;11.546;2023-02-11T11:09:59;9.20;;;6.83;;
9178;SDS011;4624;48.126;11.546;2023-02-11T11:12:33;8.33;;;6.40;;
9178;SDS011;4624;48.126;11.546;2023-02-11T11:15:12;12.53;;;6.50;;
9178;SDS011;4624;48.126;11.546;2023-02-11T11:17:42;12.20;;;6.70;;
9178;SDS011;4624;48.126;11.546;2023-02-11T11:20:14;10.20;;;6.83;;
9178;SDS011;4624;48.126;11.546;2023-02-11T11:22:46;10.33;;;7.03;;
9178;SDS011;4624;48.126;11.546;2023-02-11T11:25:24;11.63;;;7.30;;
9178;SDS011;4624;48.126;11.546;2023-02-11T11:27:55;11.87;;;6.60;;
9178;SDS011;4624;48.126;11.546;2023-02-11T11:30:25;9.37;;;6.97;;
9178;SDS011;4624;48.126;11.546;2023-02-11T11:32:56;9.53;;;6.40;;
9178;SDS011;4624;48.126;11.546;2023-02-11T11:35:24;10.97;;;6.47;;
9178;SDS011;4624;48.126;11.546;2023-02-11T11:37:55;9.90;;;7.50;;
9178;SDS011;4624;48.126;11.546;2023-02-11T11:40:26;10.20;;;6.50;;
9178;SDS011;4624;48.126;11.546;2023-02-11T11:43:01;10.63;;;6.83;;
9178;SDS011;4624;48.126;11.546;2023-02-11T11:45:42;9.23;;;6.90;;
9178;SDS011;4624;48.126;11.546;2023-02-11T11:48:20;14.17;;;8.37;;
9178;SDS011;4624;48.126;11.546;2023-02-11T11:50:51;13.40;;;7.60;;
9178;SDS011;4624;48.126;11.546;2023-02-11T11:53:23;10.87;;;6.27;;
9178;SDS011;4624;48.126;11.546;2023-02-11T11:55:58;10.03;;;6.97;;
9178;SDS011;4624;48.126;11.546;2023-02-11T11:58:29;11.67;;;7.13;;
9178;SDS011;4624;48.126;11.546;2023-02-11T12:00:58;8.53;;;6.30;;
9178;SDS011;4624;48.126;11.546;2023-02-11T12:06:39;10.47;;;5.67;;
9178;SDS011;4624;48.126;11.546;2023-02-11T12:09:17;8.50;;;5.27;;
9178;SDS011;4624;48.126;11.546;2023-02-11T12:14:42;13.10;;;6.07;;
9178;SDS011;4624;48.126;11.546;2023-02-11T12:17:21;8.33;;;5.87;;
9178;SDS011;4624;48.126;11.546;2023-02-11T12:20:03;8.43;;;5.67;;
9178;SDS011;4624;48.126;11.546;2023-02-11T12:22:45;8.70;;;5.77;;
9178;SDS011;4624;48.126;11.546;2023-02-11T12:25:26;8.47;;;5.67;;
9178;SDS011;4624;48.126;11.546;2023-02-11T12:27:56;11.83;;;7.07;;
9178;SDS011;4624;48.126;11.546;2023-02-11T12:30:38;7.23;;;5.60;;
9178;SDS011;4624;48.126;11.546;2023-02-11T12:33:15;7.43;;;5.90;;
9178;SDS011;4624;48.126;11.546;2023-02-11T12:35:55;9.20;;;5.63;;
9178;SDS011;4624;48.126;11.546;2023-02-11T12:38:31;9.37;;;6.47;;
9178;SDS011;4624;48.126;11.546;2023-02-11T12:41:16;8.27;;;6.20;;
9178;SDS011;4624;48.126;11.546;2023-02-11T12:44:08;9.13;;;6.07;;
9178;SDS011;4624;48.126;11.546;2023-02-11T12:46:46;10.73;;;6.97;;
9178;SDS011;4624;48.126;11.546;2023-02-11T12:49:37;9.87;;;6.50;;
9178;SDS011;4624;48.126;11.546;2023-02-11T12:52:22;10.67;;;6.17;;
9178;SDS011;4624;48.126;11.546;2023-02-11T12:55:01;9.43;;;6.33;;
9178;SDS011;4624;48.126;11.546;2023-02-11T12:57:35;10.87;;;6.70;;
9178;SDS011;4624;48.126;11.546;2023-02-11T13:00:06;8.67;;;5.90;;
9178;SDS011;4624;48.126;11.546;2023-02-11T13:02:43;10.17;;;6.60;;
9178;SDS011;4624;48.126;11.546;2023-02-11T13:05:22;8.03;;;5.83;;
9178;SDS011;4624;48.126;11.546;2023-02-11T13:07:53;9.20;;;5.90;;
9178;SDS011;4624;48.126;11.546;2023-02-11T13:10:25;8.40;;;5.57;;
9178;SDS011;4624;48.126;11.546;2023-02-11T13:12:58;10.33;;;6.43;;
9178;SDS011;4624;48.126;11.546;2023-02-11T13:15:42;9.27;;;5.80;;
9178;SDS011;4624;48.126;11.546;2023-02-11T13:18:16;10.37;;;5.77;;
9178;SDS011;4624;48.126;11.546;2023-02-11T13:20:50;9.70;;;6.13;;
9178;SDS011;4624;48.126;11.546;2023-02-11T13:23:22;15.00;;;6.47;;
9178;SDS011;4624;48.126;11.546;2023-02-11T13:25:52;10.03;;;6.37;;
9178;SDS011;4624;48.126;11.546;2023-02-11T13:28:27;7.97;;;6.03;;
9178;SDS011;4624;48.126;11.546;2023-02-11T13:31:00;14.80;;;7.60;;
9178;SDS011;4624;48.126;11.546;2023-02-11T13:33:31;9.50;;;5.97;;
9178;SDS011;4624;48.126;11.546;2023-02-11T13:36:11;8.57;;;5.30;;
9178;SDS011;4624;48.126;11.546;2023-02-11T13:38:40;6.20;;;5.03;;
9178;SDS011;4624;48.126;11.546;2023-02-11T13:41:26;9.20;;;5.87;;
9178;SDS011;4624;48.126;11.546;2023-02-11T13:43:57;8.33;;;5.60;;
9178;SDS011;4624;48.126;11.546;2023-02-11T13:46:26;8.90;;;5.70;;
9178;SDS011;4624;48.126;11.546;2023-02-11T13:48:55;7.57;;;5.27;;
9178;SDS011;4624;48.126;11.546;2023-02-11T13:51:33;11.53;;;5.90;;
9178;SDS011;4624;48.126;11.546;2023-02-11T13:54:02;11.57;;;5.27;;
9178;SDS011;4624;48.126;11.546;2023-02-11T13:56:31;8.77;;;5.40;;
9178;SDS011;4624;48.126;11.546;2023-02-11T13:59:01;9.10;;;5.70;;
9178;SDS011;4624;48.126;11.546;2023-02-11T14:01:41;9.50;;;6.07;;
9178;SDS011;4624;48.126;11.546;2023-02-11T14:05:01;7.90;;;5.30;;
9178;SDS011;4624;48.126;11.546;2023-02-11T14:08:12;10.10;;;5.73;;
9178;SDS011;4624;48.126;11.546;2023-02-11T14:11:04;7.80;;;5.10;;
9178;SDS011;4624;48.126;11.546;2023-02-11T14:16:38;7.97;;;5.03;;
9178;SDS011;4624;48.126;11.546;2023-02-11T14:19:46;7.20;;;5.03;;
9178;SDS011;4624;48.126;11.546;2023-02-11T14:22:15;7.93;;;5.73;;
9178;SDS011;4624;48.126;11.546;2023-02-11T14:24:46;8.93;;;5.20;;
9178;SDS011;4624;48.126;11.546;2023-02-11T14:27:29;9.10;;;5.43;;
9178;SDS011;4624;48.126;11.546;2023-02-11T14:32:56;7.77;;;5.30;;
9178;SDS011;4624;48.126;11.546;2023-02-11T14:35:34;7.70;;;5.50;;
9178;SDS011;4624;48.126;11.546;2023-02-11T14:38:09;10.20;;;5.40;;
9178;SDS011;4624;48.126;11.546;2023-02-11T14:40:45;6.73;;;5.33;;
9178;SDS011;4624;48.126;11.546;2023-02-11T14:43:19;10.73;;;5.40;;
9178;SDS011;4624;48.126;11.546;2023-02-11T14:45:52;8.43;;;5.70;;
9178;SDS011;4624;48.126;11.546;2023-02-11T14:48:21;7.63;;;5.03;;
9178;SDS011;4624;48.126;11.546;2023-02-11T14:50:56;10.97;;;6.67;;
9178;SDS011;4624;48.126;11.546;2023-02-11T14:53:26;9.83;;;6.17;;
9178;SDS011;4624;48.126;11.546;2023-02-11T14:55:55;9.77;;;6.27;;
9178;SDS011;4624;48.126;11.546;2023-02-11T14:58:23;9.90;;;6.50;;
9178;SDS011;4624;48.126;11.546;2023-02-11T15:00:53;12.30;;;6.83;;
9178;SDS011;4624;48.126;11.546;2023-02-11T15:03:29;10.57;;;7.43;;
9178;SDS011;4624;48.126;11.546;2023-02-11T15:06:00;13.37;;;7.47;;
9178;SDS011;4624;48.126;11.546;2023-02-11T15:08:29;9.73;;;7.13;;
9178;SDS011;4624;48.126;11.546;2023-02-11T15:10:58;12.63;;;7.63;;
9178;SDS011;4624;48.126;11.546;2023-02-11T15:13:28;11.37;;;7.93;;
9178;SDS011;4624;48.126;11.546;2023-02-11T15:15:58;10.53;;;7.53;;
9178;SDS011;4624;48.126;11.546;2023-02-11T15:18:31;11.17;;;7.33;;
9178;SDS011;4624;48.126;11.546;2023-02-11T15:21:02;13.67;;;8.13;;
9178;SDS011;4624;48.126;11.546;2023-02-11T15:23:29;11.40;;;7.87;;
9178;SDS011;4624;48.126;11.546;2023-02-11T15:25:57;11.80;;;8.00;;
9178;SDS011;4624;48.126;11.546;2023-02-11T15:28:29;11.33;;;8.37;;